Cumberland Furnace, Tennessee
Current Conditions -  °F | °C
As of 6:52 PM on Monday 24 Nov 2014 (Local Time) from KCKV Reporting Station
Clear Clear  
Wind Chill: 45°   Ceiling: Unl
Heat Index: 47°   Visibility: 10mi
Dew Point: 31°   Wind: 5mph
Humidity: 54%   Direction: 240°WSW
Pressure: 29.96"   Gusts: NA
Location:  36.27°N, 87.36°W
Report Text: KCKV 250052Z AUTO 24004KT 10SM CLR 08/M01 A2996 RMK AO2 SLP144 T00831006
Loading
Personal Weather Stations






























Interactive Weather Map New forecast layout! Learn more

10-Day Weather Forecast

Advertisements
Track Severe Weather on mobile